sensor_id;sensor_type;location;lat;lon;timestamp;temperature;humidity
12384;DHT22;6256;63.808;20.336;2023-05-03T00:00:24;1.20;99.90
12384;DHT22;6256;63.808;20.336;2023-05-03T00:02:51;1.20;99.90
12384;DHT22;6256;63.808;20.336;2023-05-03T00:05:18;1.30;99.90
12384;DHT22;6256;63.808;20.336;2023-05-03T00:07:45;1.30;99.90
12384;DHT22;6256;63.808;20.336;2023-05-03T00:10:11;1.30;99.90
12384;DHT22;6256;63.808;20.336;2023-05-03T00:12:42;1.40;99.90
12384;DHT22;6256;63.808;20.336;2023-05-03T00:15:09;1.20;99.90
12384;DHT22;6256;63.808;20.336;2023-05-03T00:17:35;1.20;99.90
12384;DHT22;6256;63.808;20.336;2023-05-03T00:20:05;1.30;99.90
12384;DHT22;6256;63.808;20.336;2023-05-03T00:22:32;1.20;99.90
12384;DHT22;6256;63.808;20.336;2023-05-03T00:24:58;1.20;99.90
12384;DHT22;6256;63.808;20.336;2023-05-03T00:27:24;1.20;99.90
12384;DHT22;6256;63.808;20.336;2023-05-03T00:29:50;1.20;99.90
12384;DHT22;6256;63.808;20.336;2023-05-03T00:32:19;1.10;99.90
12384;DHT22;6256;63.808;20.336;2023-05-03T00:34:53;1.30;99.90
12384;DHT22;6256;63.808;20.336;2023-05-03T00:37:19;1.30;99.90
12384;DHT22;6256;63.808;20.336;2023-05-03T00:39:45;1.50;99.90
12384;DHT22;6256;63.808;20.336;2023-05-03T00:42:11;1.60;99.90
12384;DHT22;6256;63.808;20.336;2023-05-03T00:44:36;1.50;99.90
12384;DHT22;6256;63.808;20.336;2023-05-03T00:47:02;1.50;99.90
12384;DHT22;6256;63.808;20.336;2023-05-03T00:49:29;1.50;99.90
12384;DHT22;6256;63.808;20.336;2023-05-03T00:51:55;1.50;99.90
12384;DHT22;6256;63.808;20.336;2023-05-03T00:54:25;1.40;99.90
12384;DHT22;6256;63.808;20.336;2023-05-03T00:56:51;1.40;99.90
12384;DHT22;6256;63.808;20.336;2023-05-03T00:59:18;1.40;99.90
12384;DHT22;6256;63.808;20.336;2023-05-03T01:01:50;1.40;99.90
12384;DHT22;6256;63.808;20.336;2023-05-03T01:04:16;1.40;99.90
12384;DHT22;6256;63.808;20.336;2023-05-03T01:07:03;1.50;99.90
12384;DHT22;6256;63.808;20.336;2023-05-03T01:09:35;1.50;99.90
12384;DHT22;6256;63.808;20.336;2023-05-03T01:17:25;1.70;99.90
12384;DHT22;6256;63.808;20.336;2023-05-03T01:20:05;1.80;99.90
12384;DHT22;6256;63.808;20.336;2023-05-03T01:25:23;1.70;99.90
12384;DHT22;6256;63.808;20.336;2023-05-03T01:27:49;1.80;99.90
12384;DHT22;6256;63.808;20.336;2023-05-03T01:30:15;1.90;99.90
12384;DHT22;6256;63.808;20.336;2023-05-03T01:35:39;1.80;99.90
12384;DHT22;6256;63.808;20.336;2023-05-03T01:38:07;1.80;99.90
12384;DHT22;6256;63.808;20.336;2023-05-03T01:40:39;1.80;99.90
12384;DHT22;6256;63.808;20.336;2023-05-03T01:43:08;1.80;99.90
12384;DHT22;6256;63.808;20.336;2023-05-03T01:45:36;1.80;99.90
12384;DHT22;6256;63.808;20.336;2023-05-03T01:48:02;1.80;99.90
12384;DHT22;6256;63.808;20.336;2023-05-03T01:50:30;1.90;99.90
12384;DHT22;6256;63.808;20.336;2023-05-03T01:52:56;1.80;99.90
12384;DHT22;6256;63.808;20.336;2023-05-03T01:55:22;1.90;99.90
12384;DHT22;6256;63.808;20.336;2023-05-03T01:57:48;2.00;99.90
12384;DHT22;6256;63.808;20.336;2023-05-03T02:00:13;2.00;99.90
12384;DHT22;6256;63.808;20.336;2023-05-03T02:02:39;2.00;99.90
12384;DHT22;6256;63.808;20.336;2023-05-03T02:05:05;1.90;99.90
12384;DHT22;6256;63.808;20.336;2023-05-03T02:07:31;1.90;99.90
12384;DHT22;6256;63.808;20.336;2023-05-03T02:09:56;1.90;99.90
12384;DHT22;6256;63.808;20.336;2023-05-03T02:12:22;1.90;99.90
12384;DHT22;6256;63.808;20.336;2023-05-03T02:14:48;1.90;99.90
12384;DHT22;6256;63.808;20.336;2023-05-03T02:17:13;1.90;99.90
12384;DHT22;6256;63.808;20.336;2023-05-03T02:19:41;1.90;99.90
12384;DHT22;6256;63.808;20.336;2023-05-03T02:22:07;1.90;99.90
12384;DHT22;6256;63.808;20.336;2023-05-03T02:24:32;2.00;99.90
12384;DHT22;6256;63.808;20.336;2023-05-03T02:27:01;2.00;99.90
12384;DHT22;6256;63.808;20.336;2023-05-03T02:29:29;2.00;99.90
12384;DHT22;6256;63.808;20.336;2023-05-03T02:31:55;2.00;99.90
12384;DHT22;6256;63.808;20.336;2023-05-03T02:34:22;2.00;99.90
12384;DHT22;6256;63.808;20.336;2023-05-03T02:36:48;1.90;99.90
12384;DHT22;6256;63.808;20.336;2023-05-03T02:39:13;1.80;99.90
12384;DHT22;6256;63.808;20.336;2023-05-03T02:41:41;1.80;99.90
12384;DHT22;6256;63.808;20.336;2023-05-03T02:44:07;1.80;99.90
12384;DHT22;6256;63.808;20.336;2023-05-03T02:46:32;1.80;99.90
12384;DHT22;6256;63.808;20.336;2023-05-03T02:48:58;1.80;99.90
12384;DHT22;6256;63.808;20.336;2023-05-03T02:51:25;1.80;99.90
12384;DHT22;6256;63.808;20.336;2023-05-03T02:53:51;1.80;99.90
12384;DHT22;6256;63.808;20.336;2023-05-03T02:56:17;1.80;99.90
12384;DHT22;6256;63.808;20.336;2023-05-03T02:58:42;1.80;99.90
12384;DHT22;6256;63.808;20.336;2023-05-03T03:01:09;1.80;99.90
12384;DHT22;6256;63.808;20.336;2023-05-03T03:03:35;1.80;99.90
12384;DHT22;6256;63.808;20.336;2023-05-03T03:06:00;1.70;99.90
12384;DHT22;6256;63.808;20.336;2023-05-03T03:08:26;1.70;99.90
12384;DHT22;6256;63.808;20.336;2023-05-03T03:10:52;1.70;99.90
12384;DHT22;6256;63.808;20.336;2023-05-03T03:13:17;1.70;99.90
12384;DHT22;6256;63.808;20.336;2023-05-03T03:15:43;1.60;99.90
12384;DHT22;6256;63.808;20.336;2023-05-03T03:18:09;1.70;99.90
12384;DHT22;6256;63.808;20.336;2023-05-03T03:20:34;1.70;99.90
12384;DHT22;6256;63.808;20.336;2023-05-03T03:23:00;1.70;99.90
12384;DHT22;6256;63.808;20.336;2023-05-03T03:25:26;1.80;99.90
12384;DHT22;6256;63.808;20.336;2023-05-03T03:27:51;1.90;99.90
12384;DHT22;6256;63.808;20.336;2023-05-03T03:30:23;1.90;99.90
12384;DHT22;6256;63.808;20.336;2023-05-03T03:32:49;2.00;99.90
12384;DHT22;6256;63.808;20.336;2023-05-03T03:35:15;2.10;99.90
12384;DHT22;6256;63.808;20.336;2023-05-03T03:37:41;2.10;99.90
12384;DHT22;6256;63.808;20.336;2023-05-03T03:40:07;2.20;99.90
12384;DHT22;6256;63.808;20.336;2023-05-03T03:42:33;2.30;99.90
12384;DHT22;6256;63.808;20.336;2023-05-03T03:44:59;2.40;99.90
12384;DHT22;6256;63.808;20.336;2023-05-03T03:47:25;2.50;99.90
12384;DHT22;6256;63.808;20.336;2023-05-03T03:49:51;2.50;99.90
12384;DHT22;6256;63.808;20.336;2023-05-03T03:52:16;2.60;99.90
12384;DHT22;6256;63.808;20.336;2023-05-03T03:54:42;2.70;99.90
12384;DHT22;6256;63.808;20.336;2023-05-03T03:57:08;2.80;99.90
12384;DHT22;6256;63.808;20.336;2023-05-03T03:59:34;2.80;99.90
12384;DHT22;6256;63.808;20.336;2023-05-03T04:02:00;2.80;99.90
12384;DHT22;6256;63.808;20.336;2023-05-03T04:04:25;2.90;99.90
12384;DHT22;6256;63.808;20.336;2023-05-03T04:06:51;2.90;99.90
12384;DHT22;6256;63.808;20.336;2023-05-03T04:09:17;3.00;99.90
12384;DHT22;6256;63.808;20.336;2023-05-03T04:11:43;3.00;99.90
12384;DHT22;6256;63.808;20.336;2023-05-03T04:14:09;3.10;99.90
12384;DHT22;6256;63.808;20.336;2023-05-03T04:16:35;3.10;99.90
12384;DHT22;6256;63.808;20.336;2023-05-03T04:19:00;3.20;99.90
12384;DHT22;6256;63.808;20.336;2023-05-03T04:21:26;3.20;99.90
12384;DHT22;6256;63.808;20.336;2023-05-03T04:23:53;3.30;99.90
12384;DHT22;6256;63.808;20.336;2023-05-03T04:26:19;3.40;99.90
12384;DHT22;6256;63.808;20.336;2023-05-03T04:28:47;3.50;99.90
12384;DHT22;6256;63.808;20.336;2023-05-03T04:31:13;3.50;99.90
12384;DHT22;6256;63.808;20.336;2023-05-03T04:33:39;3.50;99.90
12384;DHT22;6256;63.808;20.336;2023-05-03T04:36:05;3.60;99.90
12384;DHT22;6256;63.808;20.336;2023-05-03T04:38:31;3.70;99.90
12384;DHT22;6256;63.808;20.336;2023-05-03T04:40:57;3.70;99.90
12384;DHT22;6256;63.808;20.336;2023-05-03T04:43:23;3.90;99.90
12384;DHT22;6256;63.808;20.336;2023-05-03T04:45:51;3.90;99.90
12384;DHT22;6256;63.808;20.336;2023-05-03T04:48:16;4.00;99.90
12384;DHT22;6256;63.808;20.336;2023-05-03T04:50:42;4.00;99.90
12384;DHT22;6256;63.808;20.336;2023-05-03T04:53:09;4.10;99.90
12384;DHT22;6256;63.808;20.336;2023-05-03T04:55:35;4.10;99.90
12384;DHT22;6256;63.808;20.336;2023-05-03T04:58:00;4.20;99.90
12384;DHT22;6256;63.808;20.336;2023-05-03T05:00:26;4.20;99.90
12384;DHT22;6256;63.808;20.336;2023-05-03T05:02:52;4.30;99.90
12384;DHT22;6256;63.808;20.336;2023-05-03T05:05:17;4.50;99.90
12384;DHT22;6256;63.808;20.336;2023-05-03T05:07:43;4.60;99.90
12384;DHT22;6256;63.808;20.336;2023-05-03T05:10:09;4.70;99.90
12384;DHT22;6256;63.808;20.336;2023-05-03T05:12:35;4.80;99.90
12384;DHT22;6256;63.808;20.336;2023-05-03T05:15:01;4.70;99.90
12384;DHT22;6256;63.808;20.336;2023-05-03T05:17:26;4.60;99.90
12384;DHT22;6256;63.808;20.336;2023-05-03T05:19:53;4.70;99.90
12384;DHT22;6256;63.808;20.336;2023-05-03T05:22:19;4.60;99.90
12384;DHT22;6256;63.808;20.336;2023-05-03T05:24:45;4.70;99.90
12384;DHT22;6256;63.808;20.336;2023-05-03T05:27:11;4.60;99.90
12384;DHT22;6256;63.808;20.336;2023-05-03T05:29:37;4.60;99.90
12384;DHT22;6256;63.808;20.336;2023-05-03T05:32:03;4.60;99.90
12384;DHT22;6256;63.808;20.336;2023-05-03T05:34:30;4.50;99.90
12384;DHT22;6256;63.808;20.336;2023-05-03T05:36:56;4.30;99.90
12384;DHT22;6256;63.808;20.336;2023-05-03T05:39:22;4.30;99.90
12384;DHT22;6256;63.808;20.336;2023-05-03T05:41:48;4.20;99.90
12384;DHT22;6256;63.808;20.336;2023-05-03T05:44:14;4.20;99.90
12384;DHT22;6256;63.808;20.336;2023-05-03T05:46:39;4.20;99.90
12384;DHT22;6256;63.808;20.336;2023-05-03T05:49:05;4.40;99.90
12384;DHT22;6256;63.808;20.336;2023-05-03T05:51:31;4.50;99.90
12384;DHT22;6256;63.808;20.336;2023-05-03T05:53:57;4.50;99.90
12384;DHT22;6256;63.808;20.336;2023-05-03T05:56:22;4.50;99.90
12384;DHT22;6256;63.808;20.336;2023-05-03T05:58:48;4.50;99.90
12384;DHT22;6256;63.808;20.336;2023-05-03T06:01:14;4.60;99.90
12384;DHT22;6256;63.808;20.336;2023-05-03T06:03:40;4.70;99.90
12384;DHT22;6256;63.808;20.336;2023-05-03T06:06:06;4.70;99.90
12384;DHT22;6256;63.808;20.336;2023-05-03T06:08:35;4.80;99.90
12384;DHT22;6256;63.808;20.336;2023-05-03T06:11:00;4.90;99.50
12384;DHT22;6256;63.808;20.336;2023-05-03T06:13:26;5.10;99.90
12384;DHT22;6256;63.808;20.336;2023-05-03T06:15:52;5.20;99.80
12384;DHT22;6256;63.808;20.336;2023-05-03T06:18:18;5.30;98.70
12384;DHT22;6256;63.808;20.336;2023-05-03T06:20:48;5.40;98.50
12384;DHT22;6256;63.808;20.336;2023-05-03T06:23:13;5.20;97.60
12384;DHT22;6256;63.808;20.336;2023-05-03T06:25:39;5.40;97.90
12384;DHT22;6256;63.808;20.336;2023-05-03T06:28:04;5.50;97.80
12384;DHT22;6256;63.808;20.336;2023-05-03T06:30:30;5.50;97.40
12384;DHT22;6256;63.808;20.336;2023-05-03T06:32:56;5.50;96.80
12384;DHT22;6256;63.808;20.336;2023-05-03T06:35:22;5.30;96.80
12384;DHT22;6256;63.808;20.336;2023-05-03T06:37:48;5.20;98.10
12384;DHT22;6256;63.808;20.336;2023-05-03T06:40:13;5.30;96.40
12384;DHT22;6256;63.808;20.336;2023-05-03T06:42:40;5.30;96.60
12384;DHT22;6256;63.808;20.336;2023-05-03T06:45:06;5.50;96.80
12384;DHT22;6256;63.808;20.336;2023-05-03T06:47:32;5.70;96.80
12384;DHT22;6256;63.808;20.336;2023-05-03T06:49:58;5.90;95.30
12384;DHT22;6256;63.808;20.336;2023-05-03T06:52:24;5.80;94.60
12384;DHT22;6256;63.808;20.336;2023-05-03T06:54:49;5.30;94.60
12384;DHT22;6256;63.808;20.336;2023-05-03T06:57:15;5.40;95.40
12384;DHT22;6256;63.808;20.336;2023-05-03T06:59:41;5.50;95.30
12384;DHT22;6256;63.808;20.336;2023-05-03T07:02:07;5.60;95.90
12384;DHT22;6256;63.808;20.336;2023-05-03T07:04:32;5.80;96.00
12384;DHT22;6256;63.808;20.336;2023-05-03T07:06:58;5.80;96.20
12384;DHT22;6256;63.808;20.336;2023-05-03T07:09:24;5.80;95.90
12384;DHT22;6256;63.808;20.336;2023-05-03T07:11:50;5.60;99.60
12384;DHT22;6256;63.808;20.336;2023-05-03T07:14:16;5.20;99.90
12384;DHT22;6256;63.808;20.336;2023-05-03T07:16:42;5.10;99.90
12384;DHT22;6256;63.808;20.336;2023-05-03T07:19:07;5.00;99.90
12384;DHT22;6256;63.808;20.336;2023-05-03T07:21:33;4.70;99.90
12384;DHT22;6256;63.808;20.336;2023-05-03T07:24:00;4.60;99.90
12384;DHT22;6256;63.808;20.336;2023-05-03T07:26:26;4.30;99.90
12384;DHT22;6256;63.808;20.336;2023-05-03T07:28:52;4.10;99.90
12384;DHT22;6256;63.808;20.336;2023-05-03T07:31:19;4.00;99.90
12384;DHT22;6256;63.808;20.336;2023-05-03T07:33:45;3.90;99.90
12384;DHT22;6256;63.808;20.336;2023-05-03T07:36:11;3.90;99.90
12384;DHT22;6256;63.808;20.336;2023-05-03T07:38:36;3.90;99.90
12384;DHT22;6256;63.808;20.336;2023-05-03T07:41:03;3.80;99.90
12384;DHT22;6256;63.808;20.336;2023-05-03T07:43:29;3.70;99.90
12384;DHT22;6256;63.808;20.336;2023-05-03T07:45:55;3.70;99.90
12384;DHT22;6256;63.808;20.336;2023-05-03T07:48:21;3.60;99.90
12384;DHT22;6256;63.808;20.336;2023-05-03T07:50:46;3.60;99.90
12384;DHT22;6256;63.808;20.336;2023-05-03T07:53:13;3.80;99.90
12384;DHT22;6256;63.808;20.336;2023-05-03T07:55:39;3.80;99.90
12384;DHT22;6256;63.808;20.336;2023-05-03T07:58:04;3.80;99.90
12384;DHT22;6256;63.808;20.336;2023-05-03T08:00:30;3.80;99.90
12384;DHT22;6256;63.808;20.336;2023-05-03T08:02:56;3.80;99.90
12384;DHT22;6256;63.808;20.336;2023-05-03T08:05:22;3.70;99.90
12384;DHT22;6256;63.808;20.336;2023-05-03T08:07:48;3.80;99.90
12384;DHT22;6256;63.808;20.336;2023-05-03T08:10:14;3.80;99.90
12384;DHT22;6256;63.808;20.336;2023-05-03T08:12:40;3.90;99.90
12384;DHT22;6256;63.808;20.336;2023-05-03T08:15:07;4.00;99.90
12384;DHT22;6256;63.808;20.336;2023-05-03T08:17:43;4.10;99.90
12384;DHT22;6256;63.808;20.336;2023-05-03T08:20:10;4.00;99.90
12384;DHT22;6256;63.808;20.336;2023-05-03T08:22:37;3.90;99.90
12384;DHT22;6256;63.808;20.336;2023-05-03T08:25:03;4.10;99.90
12384;DHT22;6256;63.808;20.336;2023-05-03T08:27:30;4.20;99.90
12384;DHT22;6256;63.808;20.336;2023-05-03T08:29:55;4.30;99.90
12384;DHT22;6256;63.808;20.336;2023-05-03T08:32:21;4.50;99.90
12384;DHT22;6256;63.808;20.336;2023-05-03T08:34:49;4.70;99.90
12384;DHT22;6256;63.808;20.336;2023-05-03T08:37:15;4.90;99.90
12384;DHT22;6256;63.808;20.336;2023-05-03T08:39:40;4.70;99.90
12384;DHT22;6256;63.808;20.336;2023-05-03T08:42:07;4.30;99.90
12384;DHT22;6256;63.808;20.336;2023-05-03T08:44:36;3.80;99.90
12384;DHT22;6256;63.808;20.336;2023-05-03T08:47:05;3.60;99.90
12384;DHT22;6256;63.808;20.336;2023-05-03T08:49:35;3.60;99.90
12384;DHT22;6256;63.808;20.336;2023-05-03T08:52:04;3.70;99.90
12384;DHT22;6256;63.808;20.336;2023-05-03T08:54:30;3.80;99.90
12384;DHT22;6256;63.808;20.336;2023-05-03T08:56:56;3.90;99.90
12384;DHT22;6256;63.808;20.336;2023-05-03T08:59:22;3.90;99.90
12384;DHT22;6256;63.808;20.336;2023-05-03T09:01:49;4.00;99.90
12384;DHT22;6256;63.808;20.336;2023-05-03T09:04:14;3.90;99.90
12384;DHT22;6256;63.808;20.336;2023-05-03T09:06:41;3.90;99.90
12384;DHT22;6256;63.808;20.336;2023-05-03T09:09:07;3.90;99.90
12384;DHT22;6256;63.808;20.336;2023-05-03T09:11:35;3.90;99.90
12384;DHT22;6256;63.808;20.336;2023-05-03T09:16:33;3.80;99.90
12384;DHT22;6256;63.808;20.336;2023-05-03T09:19:04;3.90;99.90
12384;DHT22;6256;63.808;20.336;2023-05-03T09:21:41;3.90;99.90
12384;DHT22;6256;63.808;20.336;2023-05-03T09:24:17;4.00;99.90
12384;DHT22;6256;63.808;20.336;2023-05-03T09:26:44;4.20;99.90
12384;DHT22;6256;63.808;20.336;2023-05-03T09:29:29;4.30;99.90
12384;DHT22;6256;63.808;20.336;2023-05-03T09:31:59;4.40;99.90
12384;DHT22;6256;63.808;20.336;2023-05-03T09:34:25;4.40;99.90
12384;DHT22;6256;63.808;20.336;2023-05-03T09:36:50;4.60;99.90
12384;DHT22;6256;63.808;20.336;2023-05-03T09:39:17;4.90;99.90
12384;DHT22;6256;63.808;20.336;2023-05-03T09:41:44;5.20;99.90
12384;DHT22;6256;63.808;20.336;2023-05-03T09:44:10;5.50;99.90
12384;DHT22;6256;63.808;20.336;2023-05-03T09:46:37;5.70;99.90
12384;DHT22;6256;63.808;20.336;2023-05-03T09:49:03;5.80;99.90
12384;DHT22;6256;63.808;20.336;2023-05-03T09:51:30;6.10;99.90
12384;DHT22;6256;63.808;20.336;2023-05-03T09:53:59;6.00;99.90
12384;DHT22;6256;63.808;20.336;2023-05-03T09:56:25;6.00;99.90
12384;DHT22;6256;63.808;20.336;2023-05-03T09:58:52;6.10;99.90
12384;DHT22;6256;63.808;20.336;2023-05-03T10:01:19;6.00;99.90
12384;DHT22;6256;63.808;20.336;2023-05-03T10:03:48;6.10;99.90
12384;DHT22;6256;63.808;20.336;2023-05-03T10:06:31;6.20;99.90
12384;DHT22;6256;63.808;20.336;2023-05-03T10:09:12;6.20;99.80
12384;DHT22;6256;63.808;20.336;2023-05-03T10:11:47;6.40;99.40
12384;DHT22;6256;63.808;20.336;2023-05-03T10:14:12;6.50;99.60
12384;DHT22;6256;63.808;20.336;2023-05-03T10:16:43;6.30;97.20
12384;DHT22;6256;63.808;20.336;2023-05-03T10:22:18;5.70;97.80
12384;DHT22;6256;63.808;20.336;2023-05-03T10:32:53;6.10;96.30
12384;DHT22;6256;63.808;20.336;2023-05-03T10:35:19;6.20;96.50
12384;DHT22;6256;63.808;20.336;2023-05-03T10:37:47;6.20;95.00
12384;DHT22;6256;63.808;20.336;2023-05-03T10:40:16;6.40;95.00
12384;DHT22;6256;63.808;20.336;2023-05-03T10:42:53;6.60;94.80
12384;DHT22;6256;63.808;20.336;2023-05-03T10:45:27;6.80;94.10
12384;DHT22;6256;63.808;20.336;2023-05-03T10:50:41;7.10;93.90
12384;DHT22;6256;63.808;20.336;2023-05-03T10:53:07;7.40;94.00
12384;DHT22;6256;63.808;20.336;2023-05-03T10:55:34;7.60;93.20
12384;DHT22;6256;63.808;20.336;2023-05-03T10:58:01;7.40;92.40
12384;DHT22;6256;63.808;20.336;2023-05-03T11:00:41;7.20;92.50
12384;DHT22;6256;63.808;20.336;2023-05-03T11:05:38;7.40;92.30
12384;DHT22;6256;63.808;20.336;2023-05-03T11:08:24;7.80;92.30
12384;DHT22;6256;63.808;20.336;2023-05-03T11:10:59;8.30;91.20
12384;DHT22;6256;63.808;20.336;2023-05-03T11:13:26;8.20;89.10
12384;DHT22;6256;63.808;20.336;2023-05-03T11:15:55;8.10;90.20
12384;DHT22;6256;63.808;20.336;2023-05-03T11:18:21;8.00;90.50
12384;DHT22;6256;63.808;20.336;2023-05-03T11:20:48;7.90;89.70
12384;DHT22;6256;63.808;20.336;2023-05-03T11:23:14;7.70;87.90
12384;DHT22;6256;63.808;20.336;2023-05-03T11:25:40;7.60;90.00
12384;DHT22;6256;63.808;20.336;2023-05-03T11:28:06;7.00;87.10
12384;DHT22;6256;63.808;20.336;2023-05-03T11:30:33;6.80;90.20
12384;DHT22;6256;63.808;20.336;2023-05-03T11:33:00;7.10;90.80
12384;DHT22;6256;63.808;20.336;2023-05-03T11:35:28;7.20;90.00
12384;DHT22;6256;63.808;20.336;2023-05-03T11:37:54;7.10;90.30
12384;DHT22;6256;63.808;20.336;2023-05-03T11:40:21;6.80;89.50
12384;DHT22;6256;63.808;20.336;2023-05-03T11:42:59;7.00;90.00
12384;DHT22;6256;63.808;20.336;2023-05-03T11:45:30;6.60;88.20
12384;DHT22;6256;63.808;20.336;2023-05-03T11:47:57;6.40;87.90
12384;DHT22;6256;63.808;20.336;2023-05-03T11:50:47;6.00;89.30
12384;DHT22;6256;63.808;20.336;2023-05-03T11:53:16;6.20;85.80
12384;DHT22;6256;63.808;20.336;2023-05-03T11:55:44;6.60;88.40
12384;DHT22;6256;63.808;20.336;2023-05-03T11:58:17;6.80;86.10
12384;DHT22;6256;63.808;20.336;2023-05-03T12:00:47;6.70;86.40
12384;DHT22;6256;63.808;20.336;2023-05-03T12:03:39;7.10;86.10
12384;DHT22;6256;63.808;20.336;2023-05-03T12:06:05;7.10;82.80
12384;DHT22;6256;63.808;20.336;2023-05-03T12:08:32;7.90;83.70
12384;DHT22;6256;63.808;20.336;2023-05-03T12:11:00;8.80;82.30
12384;DHT22;6256;63.808;20.336;2023-05-03T12:15:59;9.50;76.60
12384;DHT22;6256;63.808;20.336;2023-05-03T12:18:25;8.60;73.10
12384;DHT22;6256;63.808;20.336;2023-05-03T12:20:56;8.40;76.30
12384;DHT22;6256;63.808;20.336;2023-05-03T12:23:23;8.40;77.30
12384;DHT22;6256;63.808;20.336;2023-05-03T12:25:49;8.10;76.40
12384;DHT22;6256;63.808;20.336;2023-05-03T12:28:18;7.70;75.90
12384;DHT22;6256;63.808;20.336;2023-05-03T12:30:44;7.80;77.40
12384;DHT22;6256;63.808;20.336;2023-05-03T12:33:09;8.70;74.40
12384;DHT22;6256;63.808;20.336;2023-05-03T12:35:36;9.50;74.90
12384;DHT22;6256;63.808;20.336;2023-05-03T12:38:03;10.40;71.30
12384;DHT22;6256;63.808;20.336;2023-05-03T12:40:29;10.90;69.60
12384;DHT22;6256;63.808;20.336;2023-05-03T12:42:55;11.10;66.50
12384;DHT22;6256;63.808;20.336;2023-05-03T12:45:21;11.10;66.40
12384;DHT22;6256;63.808;20.336;2023-05-03T12:47:47;11.00;64.40
12384;DHT22;6256;63.808;20.336;2023-05-03T12:50:12;11.50;63.10
12384;DHT22;6256;63.808;20.336;2023-05-03T12:52:38;12.40;65.20
12384;DHT22;6256;63.808;20.336;2023-05-03T12:55:05;13.20;61.60
12384;DHT22;6256;63.808;20.336;2023-05-03T12:57:31;13.60;58.10
12384;DHT22;6256;63.808;20.336;2023-05-03T12:59:57;12.30;59.20
12384;DHT22;6256;63.808;20.336;2023-05-03T13:02:23;11.20;58.00
12384;DHT22;6256;63.808;20.336;2023-05-03T13:04:49;10.30;59.50
12384;DHT22;6256;63.808;20.336;2023-05-03T13:07:22;9.90;62.60
12384;DHT22;6256;63.808;20.336;2023-05-03T13:09:50;9.40;59.80
12384;DHT22;6256;63.808;20.336;2023-05-03T13:12:16;8.60;61.80
12384;DHT22;6256;63.808;20.336;2023-05-03T13:14:45;8.60;62.70
12384;DHT22;6256;63.808;20.336;2023-05-03T13:17:12;8.50;64.10
12384;DHT22;6256;63.808;20.336;2023-05-03T13:19:41;8.00;62.70
12384;DHT22;6256;63.808;20.336;2023-05-03T13:22:06;8.10;62.30
12384;DHT22;6256;63.808;20.336;2023-05-03T13:24:35;8.20;62.10
12384;DHT22;6256;63.808;20.336;2023-05-03T13:27:01;7.90;60.90
12384;DHT22;6256;63.808;20.336;2023-05-03T13:29:27;8.10;64.10
12384;DHT22;6256;63.808;20.336;2023-05-03T13:31:53;7.70;61.80
12384;DHT22;6256;63.808;20.336;2023-05-03T13:34:22;7.70;64.60
12384;DHT22;6256;63.808;20.336;2023-05-03T13:36:47;7.90;64.90
12384;DHT22;6256;63.808;20.336;2023-05-03T13:39:13;8.10;64.30
12384;DHT22;6256;63.808;20.336;2023-05-03T13:41:39;7.60;63.60
12384;DHT22;6256;63.808;20.336;2023-05-03T13:44:09;7.80;65.10
12384;DHT22;6256;63.808;20.336;2023-05-03T13:46:36;7.80;62.50
12384;DHT22;6256;63.808;20.336;2023-05-03T13:49:06;7.60;62.80
12384;DHT22;6256;63.808;20.336;2023-05-03T13:51:35;7.50;62.30
12384;DHT22;6256;63.808;20.336;2023-05-03T13:54:03;7.50;63.70
12384;DHT22;6256;63.808;20.336;2023-05-03T13:56:30;7.80;65.50
12384;DHT22;6256;63.808;20.336;2023-05-03T13:58:56;7.80;65.00
12384;DHT22;6256;63.808;20.336;2023-05-03T14:01:25;7.70;64.50
12384;DHT22;6256;63.808;20.336;2023-05-03T14:03:52;7.20;63.80
12384;DHT22;6256;63.808;20.336;2023-05-03T14:06:19;7.20;65.40
12384;DHT22;6256;63.808;20.336;2023-05-03T14:08:46;6.90;64.40
12384;DHT22;6256;63.808;20.336;2023-05-03T14:11:13;7.30;65.10
12384;DHT22;6256;63.808;20.336;2023-05-03T14:13:39;7.40;63.70
12384;DHT22;6256;63.808;20.336;2023-05-03T14:16:05;7.50;63.80
12384;DHT22;6256;63.808;20.336;2023-05-03T14:18:31;7.40;63.00
12384;DHT22;6256;63.808;20.336;2023-05-03T14:20:57;7.40;63.90
12384;DHT22;6256;63.808;20.336;2023-05-03T14:23:24;7.50;63.60
12384;DHT22;6256;63.808;20.336;2023-05-03T14:25:50;7.40;63.20
12384;DHT22;6256;63.808;20.336;2023-05-03T14:28:18;7.30;62.10
12384;DHT22;6256;63.808;20.336;2023-05-03T14:30:43;7.40;63.10
12384;DHT22;6256;63.808;20.336;2023-05-03T14:33:09;7.70;62.90
12384;DHT22;6256;63.808;20.336;2023-05-03T14:35:35;7.60;60.60
12384;DHT22;6256;63.808;20.336;2023-05-03T14:38:02;7.80;60.80
12384;DHT22;6256;63.808;20.336;2023-05-03T14:40:28;7.60;59.50
12384;DHT22;6256;63.808;20.336;2023-05-03T14:42:54;7.20;58.00
12384;DHT22;6256;63.808;20.336;2023-05-03T14:45:19;7.10;56.60
12384;DHT22;6256;63.808;20.336;2023-05-03T14:47:45;7.50;57.50
12384;DHT22;6256;63.808;20.336;2023-05-03T14:50:11;8.10;58.00
12384;DHT22;6256;63.808;20.336;2023-05-03T14:52:36;8.90;56.10
12384;DHT22;6256;63.808;20.336;2023-05-03T14:55:06;8.70;56.00
12384;DHT22;6256;63.808;20.336;2023-05-03T14:57:32;8.80;57.10
12384;DHT22;6256;63.808;20.336;2023-05-03T15:00:01;9.80;56.00
12384;DHT22;6256;63.808;20.336;2023-05-03T15:02:27;11.00;50.10
12384;DHT22;6256;63.808;20.336;2023-05-03T15:04:53;11.80;49.60
12384;DHT22;6256;63.808;20.336;2023-05-03T15:07:18;12.90;48.50
12384;DHT22;6256;63.808;20.336;2023-05-03T15:09:45;12.90;46.60
12384;DHT22;6256;63.808;20.336;2023-05-03T15:12:11;12.90;46.30
12384;DHT22;6256;63.808;20.336;2023-05-03T15:14:37;11.30;48.70
12384;DHT22;6256;63.808;20.336;2023-05-03T15:17:03;10.00;50.10
12384;DHT22;6256;63.808;20.336;2023-05-03T15:19:29;8.90;51.20
12384;DHT22;6256;63.808;20.336;2023-05-03T15:21:54;8.80;51.10
12384;DHT22;6256;63.808;20.336;2023-05-03T15:24:21;8.50;51.10
12384;DHT22;6256;63.808;20.336;2023-05-03T15:26:46;8.70;53.20
12384;DHT22;6256;63.808;20.336;2023-05-03T15:29:12;8.70;50.60
12384;DHT22;6256;63.808;20.336;2023-05-03T15:31:39;10.20;52.20
12384;DHT22;6256;63.808;20.336;2023-05-03T15:34:05;10.10;47.80
12384;DHT22;6256;63.808;20.336;2023-05-03T15:36:30;11.20;47.50
12384;DHT22;6256;63.808;20.336;2023-05-03T15:38:57;11.50;45.90
12384;DHT22;6256;63.808;20.336;2023-05-03T15:41:23;10.50;45.90
12384;DHT22;6256;63.808;20.336;2023-05-03T15:43:48;9.80;47.50
12384;DHT22;6256;63.808;20.336;2023-05-03T15:46:14;8.90;47.00
12384;DHT22;6256;63.808;20.336;2023-05-03T15:48:40;8.40;48.20
12384;DHT22;6256;63.808;20.336;2023-05-03T15:51:06;7.70;50.80
12384;DHT22;6256;63.808;20.336;2023-05-03T15:53:31;7.30;51.30
12384;DHT22;6256;63.808;20.336;2023-05-03T15:55:57;6.90;51.30
12384;DHT22;6256;63.808;20.336;2023-05-03T15:58:24;7.00;54.50
12384;DHT22;6256;63.808;20.336;2023-05-03T16:00:50;7.00;54.60
12384;DHT22;6256;63.808;20.336;2023-05-03T16:03:17;6.70;51.60
12384;DHT22;6256;63.808;20.336;2023-05-03T16:05:43;6.70;54.20
12384;DHT22;6256;63.808;20.336;2023-05-03T16:08:11;6.40;51.80
12384;DHT22;6256;63.808;20.336;2023-05-03T16:10:36;6.00;51.20
12384;DHT22;6256;63.808;20.336;2023-05-03T16:13:04;5.90;53.50
12384;DHT22;6256;63.808;20.336;2023-05-03T16:15:30;5.90;53.50